Time;durP1;ratioP1;P1;durP2;ratioP2;P2;SDS_P1;SDS_P2;PMS_P1;PMS_P2;Temp;Humidity;BMP_temperature;BMP_pressure;BME280_temperature;BME280_humidity;BME280_pressure;Samples;Min_cycle;Max_cycle;Signal;HPM_P1;HPM_P2
2024/01/25 00:01:20;;;;;;;1.50;1.20;;;18.80;59.20;;;;;;4974298;28;20585;-75
2024/01/25 00:03:45;;;;;;;1.83;1.13;;;18.80;59.20;;;;;;4969595;28;20198;-74
2024/01/25 00:06:11;;;;;;;5.32;1.50;;;18.80;59.20;;;;;;4958264;28;20240;-75
2024/01/25 00:08:37;;;;;;;1.77;1.25;;;18.80;59.20;;;;;;4962971;28;20193;-75
2024/01/25 00:11:04;;;;;;;2.72;1.42;;;18.80;59.20;;;;;;4973046;28;20213;-75
2024/01/25 00:13:30;;;;;;;1.98;1.10;;;18.80;59.30;;;;;;4972787;28;20243;-75
2024/01/25 00:15:56;;;;;;;3.20;1.38;;;18.80;59.30;;;;;;4982001;28;20342;-76
2024/01/25 00:18:22;;;;;;;2.65;1.30;;;18.80;59.20;;;;;;4981944;28;20264;-75
2024/01/25 00:20:48;;;;;;;1.75;1.10;;;18.80;59.20;;;;;;4974183;28;20190;-75
2024/01/25 00:23:13;;;;;;;2.15;1.20;;;18.80;59.20;;;;;;4962707;28;20212;-75
2024/01/25 00:25:39;;;;;;;3.17;1.42;;;18.80;59.20;;;;;;4954805;28;20226;-75
2024/01/25 00:28:05;;;;;;;3.92;1.33;;;18.80;59.20;;;;;;4982425;28;20637;-75
2024/01/25 00:30:31;;;;;;;2.80;1.20;;;18.80;59.80;;;;;;4973801;28;20200;-75
2024/01/25 00:32:57;;;;;;;3.13;1.30;;;18.80;59.20;;;;;;4954443;28;20187;-75
2024/01/25 00:35:25;;;;;;;2.08;1.20;;;18.80;59.20;;;;;;4954734;28;20209;-75
2024/01/25 00:37:51;;;;;;;2.75;1.30;;;18.80;59.20;;;;;;4954402;28;20194;-75
2024/01/25 00:40:18;;;;;;;2.42;1.25;;;18.80;59.20;;;;;;4967747;28;20201;-75
2024/01/25 00:42:52;;;;;;;2.20;1.63;;;18.80;59.20;;;;;;4968446;28;20178;-75
2024/01/25 00:45:19;;;;;;;1.40;1.10;;;18.80;59.20;;;;;;4971408;28;20210;-75
2024/01/25 00:47:45;;;;;;;2.58;1.10;;;18.80;59.20;;;;;;4964958;28;20191;-75
2024/01/25 00:50:12;;;;;;;1.90;0.90;;;18.80;59.20;;;;;;4966579;28;20178;-75
2024/01/25 00:52:38;;;;;;;1.63;1.00;;;18.80;59.20;;;;;;4957249;28;20190;-75
2024/01/25 00:55:06;;;;;;;1.83;1.00;;;18.70;59.10;;;;;;4967547;28;20206;-75
2024/01/25 00:57:32;;;;;;;2.00;1.10;;;18.80;59.20;;;;;;4971771;28;20280;-75
2024/01/25 01:00:00;;;;;;;1.77;1.13;;;18.80;59.20;;;;;;4980439;28;20182;-75
2024/01/25 01:02:30;;;;;;;2.85;1.23;;;18.80;59.20;;;;;;4973296;28;20193;-75
2024/01/25 01:04:58;;;;;;;1.83;1.20;;;18.80;59.20;;;;;;4963936;28;20206;-75
2024/01/25 01:07:24;;;;;;;2.30;1.20;;;18.80;59.20;;;;;;4982837;28;20237;-75
2024/01/25 01:09:50;;;;;;;1.77;1.20;;;18.80;59.20;;;;;;4974819;28;20182;-75
2024/01/25 01:12:16;;;;;;;2.13;1.40;;;18.80;59.20;;;;;;4987796;28;20276;-75
2024/01/25 01:14:42;;;;;;;2.83;1.42;;;18.80;59.20;;;;;;4968213;28;20230;-75
2024/01/25 01:17:08;;;;;;;1.92;0.90;;;18.80;59.20;;;;;;4950264;28;20314;-75
2024/01/25 01:19:34;;;;;;;1.88;1.30;;;18.80;59.20;;;;;;4956917;28;20618;-75
2024/01/25 01:21:59;;;;;;;2.05;1.00;;;18.80;59.20;;;;;;4989040;28;20290;-75
2024/01/25 01:24:25;;;;;;;2.53;1.25;;;18.80;59.20;;;;;;4953193;28;20213;-75
2024/01/25 01:26:51;;;;;;;1.73;0.98;;;18.80;59.20;;;;;;4984093;28;20280;-75
2024/01/25 01:29:18;;;;;;;2.03;1.35;;;18.80;59.20;;;;;;4972643;28;20221;-75
2024/01/25 01:31:44;;;;;;;2.42;1.00;;;18.80;59.20;;;;;;4970751;28;20187;-75
2024/01/25 01:34:09;;;;;;;1.90;1.38;;;18.80;59.20;;;;;;4974145;28;20272;-75
2024/01/25 01:36:35;;;;;;;2.53;1.10;;;18.80;59.20;;;;;;4956419;28;20213;-75
2024/01/25 01:39:01;;;;;;;1.45;1.08;;;18.80;59.20;;;;;;4968257;28;20218;-75
2024/01/25 01:41:27;;;;;;;2.25;1.00;;;18.80;59.20;;;;;;4988395;28;20273;-75
2024/01/25 01:43:54;;;;;;;2.47;1.00;;;18.80;59.20;;;;;;4972324;28;20204;-75
2024/01/25 01:46:37;;;;;;;2.17;1.08;;;18.80;59.20;;;;;;4954941;28;20225;-75
2024/01/25 01:49:14;;;;;;;2.45;1.10;;;18.80;59.20;;;;;;4966543;28;20272;-75
2024/01/25 01:51:43;;;;;;;2.30;1.20;;;18.80;59.20;;;;;;4969080;28;20224;-75
2024/01/25 01:54:09;;;;;;;1.85;0.88;;;18.80;59.20;;;;;;4963115;28;20194;-74
2024/01/25 01:56:35;;;;;;;3.00;1.20;;;18.80;59.20;;;;;;4955555;28;20237;-75
2024/01/25 01:59:05;;;;;;;1.50;1.00;;;18.80;59.20;;;;;;4950533;28;20195;-75
2024/01/25 02:01:32;;;;;;;1.20;1.10;;;18.80;59.20;;;;;;4971834;28;20196;-75
2024/01/25 02:03:58;;;;;;;1.70;1.23;;;18.80;59.20;;;;;;4966856;28;20197;-75
2024/01/25 02:06:24;;;;;;;1.27;1.00;;;18.80;59.20;;;;;;4974267;28;20217;-75
2024/01/25 02:08:58;;;;;;;1.38;0.93;;;18.70;59.10;;;;;;4952195;29;20242;-76
2024/01/25 02:11:25;;;;;;;2.30;1.10;;;18.80;59.20;;;;;;4970260;28;20286;-75
2024/01/25 02:13:51;;;;;;;2.78;1.38;;;18.80;59.20;;;;;;4977957;28;20186;-75
2024/01/25 02:16:20;;;;;;;1.83;0.95;;;18.80;59.20;;;;;;4979780;28;20193;-75
2024/01/25 02:18:47;;;;;;;2.08;1.25;;;18.80;59.20;;;;;;4965762;28;20675;-75
2024/01/25 02:21:13;;;;;;;0.93;0.77;;;18.80;59.20;;;;;;4955709;28;20190;-74
2024/01/25 02:23:39;;;;;;;1.80;1.00;;;18.70;59.10;;;;;;4955580;28;20197;-75
2024/01/25 02:26:05;;;;;;;1.67;1.10;;;18.80;59.20;;;;;;4966409;28;20224;-75
2024/01/25 02:28:30;;;;;;;2.13;1.05;;;18.80;59.30;;;;;;4969968;28;20269;-75
2024/01/25 02:30:57;;;;;;;2.42;1.00;;;18.70;59.10;;;;;;4955407;28;20199;-75
2024/01/25 02:33:22;;;;;;;2.60;1.20;;;18.70;59.10;;;;;;4972619;28;20191;-75
2024/01/25 02:35:48;;;;;;;1.70;1.00;;;18.80;59.20;;;;;;4971945;28;20213;-75
2024/01/25 02:38:14;;;;;;;2.05;0.82;;;18.80;59.20;;;;;;4971800;28;20193;-75
2024/01/25 02:40:40;;;;;;;1.27;0.95;;;18.80;59.20;;;;;;4964875;28;20233;-75
2024/01/25 02:43:06;;;;;;;1.83;0.85;;;18.80;59.20;;;;;;4967312;28;20194;-74
2024/01/25 02:45:32;;;;;;;1.67;0.93;;;18.70;59.10;;;;;;4970045;28;20264;-75
2024/01/25 02:47:57;;;;;;;1.40;1.00;;;18.70;59.10;;;;;;4975159;28;20198;-75
2024/01/25 02:50:23;;;;;;;3.15;1.38;;;18.70;59.10;;;;;;4953728;28;20186;-74
2024/01/25 02:52:49;;;;;;;1.77;1.20;;;18.70;59.20;;;;;;4964659;28;20217;-75
2024/01/25 02:55:19;;;;;;;1.70;0.95;;;18.70;59.10;;;;;;4965354;28;20210;-75
2024/01/25 02:57:44;;;;;;;1.50;0.93;;;18.70;59.20;;;;;;4952407;28;20708;-76
2024/01/25 03:00:11;;;;;;;1.73;0.98;;;18.70;59.20;;;;;;4950846;28;20182;-75
2024/01/25 03:02:37;;;;;;;1.55;0.82;;;18.70;59.20;;;;;;4964250;28;20189;-75
2024/01/25 03:05:03;;;;;;;1.85;1.00;;;18.70;59.10;;;;;;4965244;28;20261;-76
2024/01/25 03:07:29;;;;;;;1.45;1.02;;;18.70;59.10;;;;;;4963841;28;20264;-75
2024/01/25 03:09:54;;;;;;;1.98;1.30;;;18.70;59.20;;;;;;4969770;28;20186;-75
2024/01/25 03:12:20;;;;;;;1.40;0.95;;;18.80;59.30;;;;;;4972771;28;20190;-76
2024/01/25 03:14:46;;;;;;;2.00;1.00;;;18.70;59.10;;;;;;4988135;28;20209;-75
2024/01/25 03:17:12;;;;;;;1.40;0.88;;;18.70;59.20;;;;;;4975366;28;20244;-75
2024/01/25 03:19:38;;;;;;;1.42;0.88;;;18.80;59.30;;;;;;4967744;28;20195;-76
2024/01/25 03:22:04;;;;;;;1.50;0.98;;;18.70;59.20;;;;;;4963274;28;20594;-75
2024/01/25 03:24:29;;;;;;;2.33;0.90;;;18.70;59.20;;;;;;4974483;28;20217;-75
2024/01/25 03:26:55;;;;;;;1.60;1.45;;;18.70;59.20;;;;;;4967614;28;20213;-75
2024/01/25 03:29:21;;;;;;;1.23;0.80;;;18.70;59.10;;;;;;4974905;28;20189;-75
2024/01/25 03:31:47;;;;;;;2.13;1.17;;;18.70;59.20;;;;;;4975064;28;20625;-75
2024/01/25 03:34:13;;;;;;;1.95;1.00;;;18.70;59.20;;;;;;4967732;28;20244;-75
2024/01/25 03:36:39;;;;;;;1.67;0.98;;;18.70;59.20;;;;;;4988190;28;20768;-75
2024/01/25 03:39:07;;;;;;;1.73;1.08;;;18.70;59.20;;;;;;4978680;28;20185;-75
2024/01/25 03:41:33;;;;;;;1.25;0.95;;;18.70;59.10;;;;;;4971985;28;20194;-75
2024/01/25 03:43:58;;;;;;;1.23;1.02;;;18.70;59.20;;;;;;4963408;28;20193;-75
2024/01/25 03:46:24;;;;;;;1.83;1.30;;;18.70;59.20;;;;;;4988337;28;20221;-75
2024/01/25 03:48:50;;;;;;;1.70;0.90;;;18.80;59.30;;;;;;4970524;28;20194;-75
2024/01/25 03:51:16;;;;;;;0.90;0.80;;;18.70;59.20;;;;;;4950685;29;20244;-75
2024/01/25 03:53:42;;;;;;;1.50;0.95;;;18.70;59.20;;;;;;4974251;28;20196;-75
2024/01/25 03:56:13;;;;;;;1.20;1.10;;;18.70;59.20;;;;;;4958296;28;20220;-75
2024/01/25 03:58:38;;;;;;;1.63;0.90;;;18.70;59.20;;;;;;4974212;28;20305;-75
2024/01/25 04:01:04;;;;;;;1.83;1.10;;;18.70;59.20;;;;;;4982754;28;20277;-75
2024/01/25 04:03:30;;;;;;;1.48;0.82;;;18.70;59.20;;;;;;4966375;28;20191;-75
2024/01/25 04:05:55;;;;;;;2.47;1.10;;;18.70;59.20;;;;;;4974241;28;20268;-75
2024/01/25 04:08:21;;;;;;;2.42;0.93;;;18.70;59.20;;;;;;4974239;28;20783;-75
2024/01/25 04:10:47;;;;;;;1.20;0.98;;;18.70;59.10;;;;;;4975533;28;20188;-75
2024/01/25 04:13:12;;;;;;;1.88;1.15;;;18.70;59.20;;;;;;4958354;28;20276;-75
2024/01/25 04:15:38;;;;;;;1.38;0.80;;;18.70;59.20;;;;;;4974934;28;20210;-75
2024/01/25 04:18:04;;;;;;;0.82;0.80;;;18.70;59.20;;;;;;4973904;28;20194;-75
2024/01/25 04:20:31;;;;;;;1.30;1.05;;;18.70;59.20;;;;;;4974872;28;20256;-75
2024/01/25 04:22:57;;;;;;;1.02;0.80;;;18.70;59.20;;;;;;4973855;28;20272;-75
2024/01/25 04:25:22;;;;;;;1.05;0.80;;;18.70;59.20;;;;;;4973162;28;20214;-74
2024/01/25 04:27:48;;;;;;;1.05;0.60;;;18.80;59.30;;;;;;4973635;28;20225;-75
2024/01/25 04:30:14;;;;;;;1.35;0.98;;;18.70;59.20;;;;;;4973983;28;20181;-75
2024/01/25 04:32:40;;;;;;;1.70;1.05;;;18.70;59.20;;;;;;4973287;28;20197;-75
2024/01/25 04:35:07;;;;;;;1.55;0.88;;;18.70;59.20;;;;;;4973297;28;20209;-75
2024/01/25 04:37:33;;;;;;;1.83;0.80;;;18.70;59.20;;;;;;4974028;28;20194;-75
2024/01/25 04:39:59;;;;;;;1.67;0.70;;;18.70;59.20;;;;;;4983685;28;20202;-75
2024/01/25 04:42:25;;;;;;;1.75;0.93;;;18.70;59.20;;;;;;4974342;28;20204;-75
2024/01/25 04:44:51;;;;;;;1.50;0.90;;;18.80;59.30;;;;;;4973451;28;20206;-76
2024/01/25 04:47:16;;;;;;;1.20;0.80;;;18.70;59.20;;;;;;4970332;28;20218;-75
2024/01/25 04:49:42;;;;;;;1.38;0.68;;;18.70;59.20;;;;;;4988995;28;20236;-75
2024/01/25 04:52:08;;;;;;;1.13;0.80;;;18.70;59.20;;;;;;4956984;28;20189;-74
2024/01/25 04:54:33;;;;;;;1.70;1.00;;;18.70;59.20;;;;;;4956867;28;20224;-75
2024/01/25 04:56:59;;;;;;;1.20;0.85;;;18.70;59.20;;;;;;4957013;28;20192;-76
2024/01/25 04:59:25;;;;;;;1.70;0.80;;;18.70;59.20;;;;;;4973252;28;20197;-75
2024/01/25 05:01:53;;;;;;;1.13;0.98;;;18.70;59.20;;;;;;4953475;28;20213;-75
2024/01/25 05:04:19;;;;;;;2.20;1.10;;;18.70;59.20;;;;;;4969772;28;20308;-76
2024/01/25 05:06:45;;;;;;;1.60;0.80;;;18.70;59.30;;;;;;4974511;28;20252;-75
2024/01/25 05:09:11;;;;;;;1.52;0.85;;;18.70;59.20;;;;;;4972806;28;20190;-75
2024/01/25 05:11:40;;;;;;;1.60;0.98;;;18.70;59.20;;;;;;4988497;28;20190;-75
2024/01/25 05:14:06;;;;;;;1.05;0.82;;;18.70;59.20;;;;;;4973157;28;20212;-75
2024/01/25 05:16:32;;;;;;;1.10;0.80;;;18.70;59.20;;;;;;4956068;28;20201;-75
2024/01/25 05:18:58;;;;;;;0.95;0.70;;;18.70;59.20;;;;;;4969696;28;20350;-75
2024/01/25 05:21:25;;;;;;;2.75;0.82;;;18.70;59.20;;;;;;4969833;28;20270;-75
2024/01/25 05:23:51;;;;;;;1.38;0.90;;;18.70;59.20;;;;;;4965995;28;20280;-75
2024/01/25 05:26:17;;;;;;;0.70;0.70;;;18.70;59.20;;;;;;4969822;28;20350;-75
2024/01/25 05:28:43;;;;;;;1.13;0.82;;;18.70;59.20;;;;;;4972578;28;20189;-75
2024/01/25 05:31:12;;;;;;;1.45;1.10;;;18.70;59.20;;;;;;4970166;28;20192;-76
2024/01/25 05:33:42;;;;;;;0.68;0.63;;;18.80;59.40;;;;;;4972163;28;20186;-75
2024/01/25 05:36:09;;;;;;;1.08;0.70;;;18.70;59.30;;;;;;4953497;28;20214;-75
2024/01/25 05:38:35;;;;;;;1.80;0.93;;;18.70;59.30;;;;;;4971571;28;20223;-75
2024/01/25 05:41:01;;;;;;;2.35;0.70;;;18.70;59.20;;;;;;4970549;28;20249;-76
2024/01/25 05:43:26;;;;;;;1.35;0.93;;;18.70;59.20;;;;;;4972614;28;20197;-75
2024/01/25 05:45:52;;;;;;;1.95;0.98;;;18.70;59.20;;;;;;4973325;28;20230;-75
2024/01/25 05:48:18;;;;;;;1.02;0.85;;;18.70;59.30;;;;;;4956105;28;20198;-74
2024/01/25 05:50:44;;;;;;;2.55;1.05;;;18.70;59.30;;;;;;4955998;28;20194;-74
2024/01/25 05:53:09;;;;;;;0.82;0.80;;;18.70;59.20;;;;;;4970977;28;20269;-74
2024/01/25 05:55:35;;;;;;;2.17;0.95;;;18.70;59.20;;;;;;4970523;28;20217;-74
2024/01/25 05:58:01;;;;;;;1.58;0.82;;;18.70;59.30;;;;;;4958680;28;20231;-73
2024/01/25 06:00:28;;;;;;;1.50;0.90;;;18.70;59.30;;;;;;4971513;28;20594;-76
2024/01/25 06:02:54;;;;;;;0.93;0.73;;;18.70;59.30;;;;;;4955604;28;20184;-76
2024/01/25 06:05:20;;;;;;;1.88;0.73;;;18.70;59.30;;;;;;4973340;28;20201;-75
2024/01/25 06:07:45;;;;;;;1.45;1.00;;;18.70;59.30;;;;;;4954675;28;20206;-75
2024/01/25 06:10:11;;;;;;;1.58;0.80;;;18.70;59.40;;;;;;4953123;28;20559;-74
2024/01/25 06:12:37;;;;;;;2.28;1.15;;;18.60;59.20;;;;;;4954897;28;20197;-73
2024/01/25 06:15:03;;;;;;;1.10;0.80;;;18.70;59.30;;;;;;4968528;28;20210;-73
2024/01/25 06:17:30;;;;;;;1.00;0.90;;;18.70;59.20;;;;;;4969273;28;20194;-72
2024/01/25 06:19:56;;;;;;;2.17;1.20;;;18.70;59.20;;;;;;4981783;28;20192;-72
2024/01/25 06:22:22;;;;;;;1.17;1.00;;;18.70;59.20;;;;;;4969924;28;20201;-74
2024/01/25 06:24:48;;;;;;;1.33;1.00;;;18.60;59.20;;;;;;4986162;28;20240;-74
2024/01/25 06:27:14;;;;;;;1.67;0.80;;;18.70;59.20;;;;;;4970177;28;20696;-74
2024/01/25 06:29:40;;;;;;;1.15;1.00;;;18.60;59.20;;;;;;4954928;28;20277;-75
2024/01/25 06:32:06;;;;;;;1.70;0.88;;;18.60;59.20;;;;;;4971521;28;20209;-76
2024/01/25 06:34:32;;;;;;;2.13;0.90;;;18.70;59.30;;;;;;4955229;28;20220;-76
2024/01/25 06:36:58;;;;;;;0.85;0.80;;;18.70;59.20;;;;;;4955224;28;20185;-75
2024/01/25 06:39:23;;;;;;;1.45;0.90;;;18.60;59.20;;;;;;4971202;28;20648;-75
2024/01/25 06:41:49;;;;;;;2.17;0.90;;;18.60;59.10;;;;;;4971456;28;20265;-76
2024/01/25 06:44:15;;;;;;;1.80;0.90;;;18.60;59.10;;;;;;4950267;28;20224;-75
2024/01/25 06:46:40;;;;;;;3.20;1.15;;;18.60;59.20;;;;;;4981014;28;20731;-75
2024/01/25 06:49:07;;;;;;;1.63;0.88;;;18.60;59.20;;;;;;4955376;28;20185;-75
2024/01/25 06:51:32;;;;;;;1.90;0.90;;;18.60;59.10;;;;;;4971490;28;20197;-76
2024/01/25 06:53:58;;;;;;;1.60;0.80;;;18.70;59.20;;;;;;4952977;28;20178;-75
2024/01/25 06:56:24;;;;;;;2.08;0.95;;;18.70;59.30;;;;;;4971720;28;20197;-76
2024/01/25 06:58:49;;;;;;;1.13;0.80;;;18.60;59.20;;;;;;4955171;28;20201;-76
2024/01/25 07:01:23;;;;;;;1.25;0.90;;;18.70;59.20;;;;;;4952473;28;20207;-75
2024/01/25 07:03:52;;;;;;;1.08;0.95;;;18.70;59.20;;;;;;4965577;28;20190;-75
2024/01/25 07:06:19;;;;;;;1.17;0.88;;;18.70;59.20;;;;;;4971587;28;20296;-75
2024/01/25 07:08:46;;;;;;;2.80;0.80;;;18.70;59.20;;;;;;4949392;28;20195;-75
2024/01/25 07:11:11;;;;;;;1.65;1.00;;;18.60;59.10;;;;;;4969167;28;20216;-76
2024/01/25 07:13:37;;;;;;;1.92;1.00;;;18.60;59.10;;;;;;4952146;28;20225;-74
2024/01/25 07:16:03;;;;;;;1.98;0.90;;;18.70;59.20;;;;;;4971243;28;20287;-76
2024/01/25 07:18:29;;;;;;;1.77;1.20;;;18.60;59.10;;;;;;4969932;28;20185;-75
2024/01/25 07:20:55;;;;;;;2.13;1.00;;;18.60;59.10;;;;;;4986437;28;20212;-75
2024/01/25 07:23:22;;;;;;;2.00;1.00;;;18.60;59.10;;;;;;4968423;28;20623;-76
2024/01/25 07:25:47;;;;;;;2.83;1.00;;;18.60;59.10;;;;;;4985072;28;20264;-76
2024/01/25 07:28:13;;;;;;;3.20;1.20;;;18.60;59.10;;;;;;4955071;28;20219;-76
2024/01/25 07:30:39;;;;;;;2.22;1.13;;;18.60;59.10;;;;;;4969726;28;20198;-75
2024/01/25 07:33:05;;;;;;;1.48;1.17;;;18.60;59.10;;;;;;4971338;28;20186;-75
2024/01/25 07:35:31;;;;;;;2.72;0.95;;;18.60;59.20;;;;;;4953244;28;20356;-76
2024/01/25 07:37:57;;;;;;;2.90;1.13;;;18.70;59.20;;;;;;4966429;28;20191;-76
2024/01/25 07:40:23;;;;;;;1.75;1.20;;;18.60;59.10;;;;;;4971111;28;20200;-76
2024/01/25 07:42:48;;;;;;;1.45;1.10;;;18.60;59.10;;;;;;4954824;28;20198;-75
2024/01/25 07:45:14;;;;;;;2.25;1.23;;;18.60;59.10;;;;;;4970990;28;20298;-76
2024/01/25 07:47:44;;;;;;;2.55;1.38;;;18.60;59.10;;;;;;4971795;28;20236;-74
2024/01/25 07:50:10;;;;;;;2.30;1.20;;;18.60;59.10;;;;;;4954910;28;20192;-76
2024/01/25 07:52:36;;;;;;;3.10;1.55;;;18.60;59.10;;;;;;4968891;28;20657;-75
2024/01/25 07:55:01;;;;;;;2.83;1.50;;;18.60;59.10;;;;;;4974626;28;20216;-76
2024/01/25 07:57:27;;;;;;;2.42;1.75;;;18.60;59.10;;;;;;4971870;28;20200;-75
2024/01/25 07:59:53;;;;;;;2.03;1.55;;;18.60;59.10;;;;;;4971530;28;20197;-75
2024/01/25 08:02:19;;;;;;;2.08;1.40;;;18.60;59.10;;;;;;4972792;28;20198;-76
2024/01/25 08:04:44;;;;;;;1.48;1.10;;;18.70;59.10;;;;;;4968567;28;20836;-75
2024/01/25 08:07:10;;;;;;;3.95;1.33;;;18.60;59.10;;;;;;4974544;28;20213;-76
2024/01/25 08:09:36;;;;;;;2.55;1.38;;;18.60;59.10;;;;;;4971481;28;20197;-75
2024/01/25 08:12:02;;;;;;;3.03;1.60;;;18.60;59.10;;;;;;4962583;28;20208;-76
2024/01/25 08:14:28;;;;;;;2.53;1.52;;;18.70;59.10;;;;;;4956758;28;20209;-76
2024/01/25 08:16:55;;;;;;;2.30;1.55;;;18.60;59.10;;;;;;4988284;28;20271;-76
2024/01/25 08:19:20;;;;;;;2.15;1.50;;;18.60;59.10;;;;;;4974117;28;20198;-75
2024/01/25 08:21:46;;;;;;;2.45;1.30;;;18.60;59.10;;;;;;4990502;28;20190;-75
2024/01/25 08:24:12;;;;;;;2.75;1.38;;;18.60;59.10;;;;;;4957869;28;20214;-76
2024/01/25 08:26:38;;;;;;;2.22;1.45;;;18.60;59.10;;;;;;4957622;28;20262;-76
2024/01/25 08:29:04;;;;;;;2.78;1.45;;;18.60;59.10;;;;;;4971839;28;20305;-75
2024/01/25 08:31:30;;;;;;;2.92;1.65;;;18.60;59.10;;;;;;4970537;28;20185;-76
2024/01/25 08:33:55;;;;;;;1.90;1.30;;;18.60;59.10;;;;;;4973036;28;20197;-76
2024/01/25 08:36:22;;;;;;;1.85;1.15;;;18.70;59.20;;;;;;4970596;28;20197;-75
2024/01/25 08:38:48;;;;;;;2.13;1.73;;;18.60;59.10;;;;;;4971018;28;20194;-75
2024/01/25 08:41:15;;;;;;;2.28;1.42;;;18.60;59.10;;;;;;4973913;28;20235;-76
2024/01/25 08:43:41;;;;;;;2.25;1.30;;;18.60;59.10;;;;;;4970147;28;20204;-76
2024/01/25 08:46:08;;;;;;;2.90;1.40;;;18.60;59.10;;;;;;4971260;28;20213;-76
2024/01/25 08:48:34;;;;;;;1.70;1.30;;;18.60;59.10;;;;;;4951087;29;20191;-76
2024/01/25 08:51:00;;;;;;;5.13;1.50;;;18.60;59.10;;;;;;4965334;28;20198;-76
2024/01/25 08:53:27;;;;;;;1.65;1.33;;;18.60;59.10;;;;;;4957374;28;20292;-76
2024/01/25 08:55:54;;;;;;;3.20;1.50;;;18.60;59.10;;;;;;4966359;28;20214;-76
2024/01/25 08:58:21;;;;;;;2.40;1.50;;;18.70;59.10;;;;;;4973997;28;20186;-75
2024/01/25 09:00:47;;;;;;;2.67;1.40;;;18.60;59.00;;;;;;4985957;28;20189;-75
2024/01/25 09:03:12;;;;;;;2.22;1.70;;;18.60;59.10;;;;;;4970149;28;20197;-76
2024/01/25 09:05:44;;;;;;;2.33;1.25;;;18.60;59.00;;;;;;4972021;28;20252;-76
2024/01/25 09:08:12;;;;;;;3.15;1.60;;;18.60;59.00;;;;;;4973087;28;20253;-76
2024/01/25 09:10:40;;;;;;;1.88;1.30;;;18.70;59.10;;;;;;4967265;28;20264;-75
2024/01/25 09:13:06;;;;;;;2.88;1.50;;;18.70;59.00;;;;;;4980878;28;20214;-76
2024/01/25 09:15:32;;;;;;;1.45;1.30;;;18.70;59.00;;;;;;4971396;28;20213;-75
2024/01/25 09:17:57;;;;;;;2.00;1.40;;;18.70;59.00;;;;;;4970971;28;20198;-75
2024/01/25 09:20:23;;;;;;;2.00;1.52;;;18.70;59.00;;;;;;4973286;28;20190;-75
2024/01/25 09:22:49;;;;;;;2.33;1.50;;;18.70;58.90;;;;;;4974134;28;20219;-74
2024/01/25 09:25:15;;;;;;;2.33;1.70;;;18.70;59.00;;;;;;4965285;28;20216;-75
2024/01/25 09:27:54;;;;;;;3.47;1.40;;;18.70;59.00;;;;;;5117736;27;21091;-76
2024/01/25 09:30:20;;;;;;;1.83;1.15;;;18.70;59.00;;;;;;5122280;27;20185;-76
2024/01/25 09:32:45;;;;;;;2.28;1.40;;;18.70;59.00;;;;;;5134462;27;20192;-76
2024/01/25 09:35:11;;;;;;;2.47;1.50;;;18.70;59.00;;;;;;5118065;27;20232;-75
2024/01/25 09:37:37;;;;;;;2.25;1.30;;;18.70;59.00;;;;;;5067333;28;20196;-76
2024/01/25 09:40:03;;;;;;;1.40;1.10;;;18.70;59.00;;;;;;5072976;28;20182;-75
2024/01/25 09:42:29;;;;;;;2.55;1.40;;;18.70;59.00;;;;;;5056993;28;20193;-76
2024/01/25 09:44:55;;;;;;;1.85;1.35;;;18.70;58.90;;;;;;5050250;28;20263;-75
2024/01/25 09:47:22;;;;;;;1.95;1.48;;;18.70;58.90;;;;;;5075218;28;20250;-75
2024/01/25 09:49:48;;;;;;;2.67;1.50;;;18.70;58.90;;;;;;5105382;28;20225;-76
2024/01/25 09:52:15;;;;;;;2.60;1.27;;;18.80;59.60;;;;;;5074401;28;20247;-75
2024/01/25 09:54:41;;;;;;;2.85;1.40;;;18.70;58.90;;;;;;5067455;28;20216;-76
2024/01/25 09:57:17;;;;;;;2.47;1.58;;;18.70;58.90;;;;;;5066869;28;20190;-75
2024/01/25 09:59:44;;;;;;;1.70;1.30;;;18.70;59.00;;;;;;5083913;28;20189;-76
2024/01/25 10:02:11;;;;;;;3.78;1.58;;;18.70;58.90;;;;;;5107336;28;20194;-75
2024/01/25 10:04:37;;;;;;;2.10;1.30;;;18.70;59.00;;;;;;5068977;28;20240;-76
2024/01/25 10:07:03;;;;;;;1.33;1.15;;;18.70;58.90;;;;;;5100383;28;20245;-75
2024/01/25 10:09:39;;;;;;;1.75;1.23;;;18.80;58.90;;;;;;5066852;28;20225;-76
2024/01/25 10:12:06;;;;;;;2.38;1.48;;;18.70;58.80;;;;;;5095851;28;20273;-75
2024/01/25 10:14:31;;;;;;;2.55;1.50;;;18.80;59.00;;;;;;5066527;28;20689;-76
2024/01/25 10:16:58;;;;;;;2.63;1.50;;;18.70;58.90;;;;;;5070141;28;20198;-75
2024/01/25 10:19:25;;;;;;;3.83;1.67;;;18.70;58.90;;;;;;5083780;28;20182;-76
2024/01/25 10:21:51;;;;;;;2.17;1.20;;;18.70;58.90;;;;;;5071521;28;20295;-76
2024/01/25 10:24:17;;;;;;;2.88;1.27;;;18.80;59.00;;;;;;5073254;28;20210;-75
2024/01/25 10:26:42;;;;;;;2.45;1.20;;;18.80;58.90;;;;;;5049607;28;20205;-75
2024/01/25 10:29:09;;;;;;;2.05;1.27;;;18.70;58.80;;;;;;5073149;28;20189;-75
2024/01/25 10:31:42;;;;;;;2.45;1.52;;;18.70;58.90;;;;;;5070991;28;20271;-76
2024/01/25 10:34:15;;;;;;;2.08;1.23;;;18.80;58.90;;;;;;5108797;28;20206;-76
2024/01/25 10:36:42;;;;;;;2.30;1.30;;;18.80;58.90;;;;;;5073673;28;20572;-76
2024/01/25 10:39:09;;;;;;;3.22;1.35;;;18.80;58.90;;;;;;5087236;28;20288;-76
2024/01/25 10:41:35;;;;;;;1.77;1.13;;;18.80;58.90;;;;;;5039421;28;20227;-76
2024/01/25 10:44:02;;;;;;;1.67;1.30;;;18.80;58.90;;;;;;5089366;28;20196;-75
2024/01/25 10:46:29;;;;;;;2.67;1.70;;;18.80;58.90;;;;;;5053067;28;20203;-76
2024/01/25 10:48:58;;;;;;;3.22;1.30;;;18.70;58.80;;;;;;5057232;28;20190;-76
2024/01/25 10:51:27;;;;;;;1.77;1.50;;;18.70;58.80;;;;;;5087633;28;20220;-76
2024/01/25 10:53:53;;;;;;;2.08;1.20;;;18.80;58.90;;;;;;5055752;28;20186;-76
2024/01/25 10:56:19;;;;;;;3.00;1.70;;;18.80;59.00;;;;;;5086490;28;20186;-75
2024/01/25 10:58:46;;;;;;;2.28;1.20;;;18.70;58.80;;;;;;5039153;28;20190;-76
2024/01/25 11:01:13;;;;;;;3.50;1.63;;;18.70;58.90;;;;;;5057365;28;20190;-76
2024/01/25 11:03:42;;;;;;;1.60;1.20;;;18.70;58.80;;;;;;5059288;28;20215;-76
2024/01/25 11:06:10;;;;;;;2.13;1.20;;;18.70;58.80;;;;;;5069267;28;20194;-76
2024/01/25 11:08:38;;;;;;;2.33;1.45;;;18.80;59.00;;;;;;5038850;28;20197;-76
2024/01/25 11:11:14;;;;;;;2.17;1.30;;;18.80;58.90;;;;;;5053506;28;20244;-76
2024/01/25 11:13:44;;;;;;;3.00;1.42;;;18.80;58.90;;;;;;5052316;28;20264;-75
2024/01/25 11:16:18;;;;;;;2.42;1.30;;;18.80;58.90;;;;;;5056093;28;20214;-76
2024/01/25 11:18:54;;;;;;;2.17;1.13;;;18.80;58.90;;;;;;5052342;28;20197;-76
2024/01/25 11:21:37;;;;;;;2.70;1.30;;;18.80;58.90;;;;;;5052005;28;20198;-76
2024/01/25 11:24:04;;;;;;;2.17;1.13;;;18.80;58.90;;;;;;5063924;28;20202;-76
2024/01/25 11:26:32;;;;;;;2.60;1.25;;;18.80;58.90;;;;;;5068630;28;20214;-76
2024/01/25 11:29:00;;;;;;;2.35;1.15;;;18.80;58.90;;;;;;5054766;28;20286;-76
2024/01/25 11:31:27;;;;;;;1.67;1.35;;;18.80;58.90;;;;;;5054762;28;20190;-75
2024/01/25 11:34:00;;;;;;;2.88;1.27;;;18.80;58.90;;;;;;5054311;28;20182;-75
2024/01/25 11:36:27;;;;;;;1.85;1.20;;;18.80;58.90;;;;;;5052134;28;20190;-75
2024/01/25 11:38:53;;;;;;;1.90;1.20;;;18.80;58.80;;;;;;5057353;28;20202;-75
2024/01/25 11:41:20;;;;;;;2.83;1.23;;;18.80;58.90;;;;;;5057804;28;20197;-75
2024/01/25 11:43:49;;;;;;;2.10;1.13;;;18.80;58.90;;;;;;5045928;28;20191;-76
2024/01/25 11:46:15;;;;;;;1.25;1.02;;;18.80;58.80;;;;;;5051731;28;20291;-76
2024/01/25 11:48:41;;;;;;;1.50;1.00;;;18.80;58.80;;;;;;5052039;28;20542;-76
2024/01/25 11:51:11;;;;;;;1.48;1.00;;;18.80;58.90;;;;;;5084207;28;20594;-75
2024/01/25 11:53:37;;;;;;;1.95;1.15;;;18.80;58.90;;;;;;5051549;28;20231;-76
2024/01/25 11:56:10;;;;;;;1.33;1.00;;;18.80;58.90;;;;;;5052838;28;20217;-75
2024/01/25 11:58:38;;;;;;;2.22;1.30;;;18.80;58.90;;;;;;5084173;28;20214;-76
2024/01/25 12:01:07;;;;;;;1.60;1.05;;;18.80;58.90;;;;;;5081055;28;20219;-75
2024/01/25 12:03:38;;;;;;;1.98;1.10;;;18.80;59.50;;;;;;5051628;28;20213;-75
2024/01/25 12:06:05;;;;;;;1.50;1.00;;;18.80;58.90;;;;;;5054883;28;20229;-75
2024/01/25 12:08:34;;;;;;;2.10;1.20;;;18.80;58.90;;;;;;5049126;28;20190;-74
2024/01/25 12:11:11;;;;;;;3.17;1.33;;;18.80;58.90;;;;;;5080644;28;20197;-75
2024/01/25 12:13:41;;;;;;;1.30;0.80;;;18.80;58.90;;;;;;5049740;28;20292;-74
2024/01/25 12:16:09;;;;;;;2.58;1.20;;;18.80;58.90;;;;;;5052149;28;20590;-74
2024/01/25 12:18:35;;;;;;;2.15;1.60;;;18.80;58.90;;;;;;5068034;28;20263;-74
2024/01/25 12:21:03;;;;;;;1.50;1.13;;;18.80;58.90;;;;;;5051006;28;20216;-74
2024/01/25 12:23:40;;;;;;;1.33;1.10;;;18.80;58.90;;;;;;5053577;28;20187;-74
2024/01/25 12:26:10;;;;;;;1.30;0.88;;;18.90;58.90;;;;;;5053164;28;20210;-74
2024/01/25 12:28:37;;;;;;;1.80;1.10;;;18.90;58.90;;;;;;5049304;28;20190;-74
2024/01/25 12:31:05;;;;;;;2.33;1.35;;;18.80;58.80;;;;;;5051913;28;20178;-74
2024/01/25 12:33:33;;;;;;;1.52;1.13;;;18.90;58.90;;;;;;5068562;28;20193;-74
2024/01/25 12:36:01;;;;;;;1.42;1.00;;;18.80;58.80;;;;;;5055231;28;20239;-74
2024/01/25 12:38:28;;;;;;;3.35;1.10;;;18.80;58.80;;;;;;5050742;28;20222;-74
2024/01/25 12:40:54;;;;;;;1.05;0.80;;;18.90;58.90;;;;;;5051951;28;20200;-74
2024/01/25 12:43:23;;;;;;;1.55;1.00;;;18.80;58.80;;;;;;5088919;28;20190;-74
2024/01/25 12:45:49;;;;;;;1.02;0.88;;;18.90;58.90;;;;;;5074812;28;20235;-75